createdAt,value
2018-06-15T00:00:08.074Z,12.3
2018-06-15T00:01:15.273Z,12.3
2018-06-15T00:02:22.213Z,12.3
2018-06-15T00:03:29.413Z,12.3
2018-06-15T00:04:36.609Z,12.2
2018-06-15T00:05:43.810Z,12.2
2018-06-15T00:06:51.009Z,12.2
2018-06-15T00:07:58.212Z,12.2
2018-06-15T00:09:05.413Z,12.2
2018-06-15T00:10:12.613Z,12.2
2018-06-15T00:11:19.813Z,12.2
2018-06-15T00:12:27.020Z,12.2
2018-06-15T00:13:34.221Z,12.2
2018-06-15T00:14:41.426Z,12.2
2018-06-15T00:15:48.634Z,12.1
2018-06-15T00:16:55.836Z,12.2
2018-06-15T00:18:03.036Z,12.1
2018-06-15T00:19:10.247Z,12.1
2018-06-15T00:20:17.449Z,12
2018-06-15T00:21:24.653Z,12
2018-06-15T00:22:31.858Z,12.1
2018-06-15T00:23:39.066Z,12.1
2018-06-15T00:24:46.266Z,12
2018-06-15T00:25:53.469Z,12.1
2018-06-15T00:27:00.676Z,12.1
2018-06-15T00:28:07.607Z,12.1
2018-06-15T00:29:14.809Z,12.1
2018-06-15T00:30:22.012Z,12.1
2018-06-15T00:31:29.218Z,12.1
2018-06-15T00:32:35.876Z,12.1
2018-06-15T00:33:42.772Z,12.2
2018-06-15T00:34:49.981Z,12.2
2018-06-15T00:35:57.183Z,12.1
2018-06-15T00:37:04.391Z,12.1
2018-06-15T00:38:11.596Z,12.1
2018-06-15T00:39:18.810Z,12.1
2018-06-15T00:40:26.015Z,12.1
2018-06-15T00:41:33.235Z,12
2018-06-15T00:42:40.454Z,12
2018-06-15T00:43:47.656Z,12.1
2018-06-15T00:44:54.860Z,12
2018-06-15T00:46:02.061Z,12
2018-06-15T00:47:09.265Z,12
2018-06-15T00:48:16.482Z,12
2018-06-15T00:49:23.686Z,12
2018-06-15T00:50:30.889Z,12
2018-06-15T00:51:38.095Z,12
2018-06-15T00:52:45.293Z,12
2018-06-15T00:53:52.495Z,12
2018-06-15T00:54:59.701Z,12
2018-06-15T00:56:06.905Z,12
2018-06-15T00:57:14.110Z,12
2018-06-15T00:58:21.310Z,12
2018-06-15T00:59:28.514Z,12
2018-06-15T01:00:35.443Z,12
2018-06-15T01:01:42.648Z,12
2018-06-15T01:02:49.858Z,12
2018-06-15T01:03:57.062Z,11.9
2018-06-15T01:05:04.263Z,11.9
2018-06-15T01:06:11.466Z,11.9
2018-06-15T01:07:18.670Z,11.9
2018-06-15T01:08:25.881Z,12
2018-06-15T01:09:33.077Z,12
2018-06-15T01:10:40.002Z,12
2018-06-15T01:11:47.206Z,12
2018-06-15T01:12:54.408Z,12
2018-06-15T01:14:01.616Z,12
2018-06-15T01:15:08.815Z,12
2018-06-15T01:16:16.030Z,12
2018-06-15T01:17:23.240Z,12
2018-06-15T01:18:30.446Z,12
2018-06-15T01:19:37.645Z,12.1
2018-06-15T01:20:44.745Z,12.1
2018-06-15T01:21:51.792Z,12.1
2018-06-15T01:22:59.008Z,12.1
2018-06-15T01:24:06.204Z,12.1
2018-06-15T01:25:13.135Z,12.1
2018-06-15T01:26:20.336Z,12.1
2018-06-15T01:27:27.543Z,12.1
2018-06-15T01:28:34.746Z,12.1
2018-06-15T01:29:41.952Z,12.1
2018-06-15T01:30:49.164Z,12.1
2018-06-15T01:31:56.374Z,12.1
2018-06-15T01:33:03.317Z,12.1
2018-06-15T01:34:10.518Z,12
2018-06-15T01:35:17.719Z,12.1
2018-06-15T01:36:24.650Z,12.1
2018-06-15T01:37:31.852Z,12.1
2018-06-15T01:38:39.076Z,12.1
2018-06-15T01:39:46.284Z,12
2018-06-15T01:40:53.633Z,12
2018-06-15T01:42:00.840Z,12
2018-06-15T01:43:07.773Z,12
2018-06-15T01:44:14.984Z,12
2018-06-15T01:45:21.629Z,12
2018-06-15T01:46:28.831Z,12
2018-06-15T01:47:35.772Z,12
2018-06-15T01:48:42.710Z,12.1
2018-06-15T01:49:49.920Z,12.1
2018-06-15T01:50:57.130Z,12.1
2018-06-15T01:52:04.327Z,12.1
2018-06-15T01:53:11.529Z,12.1
2018-06-15T01:54:18.730Z,12.1
2018-06-15T01:55:25.935Z,12.1
2018-06-15T01:56:33.141Z,12.1
2018-06-15T01:57:40.398Z,12.1
2018-06-15T01:58:47.632Z,12.1
2018-06-15T01:59:54.579Z,12.1
2018-06-15T02:01:01.831Z,12
2018-06-15T02:02:09.069Z,12
2018-06-15T02:03:16.270Z,12
2018-06-15T02:04:23.521Z,12
2018-06-15T02:05:30.760Z,12
2018-06-15T02:06:38.001Z,12.1
2018-06-15T02:07:45.236Z,12
2018-06-15T02:08:52.571Z,12
2018-06-15T02:09:59.774Z,12
2018-06-15T02:11:06.972Z,12
2018-06-15T02:12:14.177Z,12
2018-06-15T02:13:21.168Z,12
2018-06-15T02:14:28.426Z,12.1
2018-06-15T02:15:35.627Z,12.1
2018-06-15T02:16:42.837Z,12.1
2018-06-15T02:17:50.038Z,12.1
2018-06-15T02:18:57.265Z,12.1
2018-06-15T02:20:04.486Z,12.1
2018-06-15T02:21:11.688Z,12
2018-06-15T02:22:18.620Z,12
2018-06-15T02:23:25.827Z,12
2018-06-15T02:24:33.037Z,12
2018-06-15T02:25:40.242Z,12
2018-06-15T02:26:47.442Z,12
2018-06-15T02:27:54.644Z,12
2018-06-15T02:29:01.582Z,12
2018-06-15T02:30:08.788Z,12
2018-06-15T02:31:15.993Z,12
2018-06-15T02:32:23.210Z,12
2018-06-15T02:33:30.409Z,12
2018-06-15T02:34:37.619Z,12
2018-06-15T02:35:44.558Z,11.9
2018-06-15T02:36:51.768Z,11.9
2018-06-15T02:37:58.980Z,11.9
2018-06-15T02:39:06.190Z,11.9
2018-06-15T02:40:13.115Z,11.9
2018-06-15T02:41:20.047Z,11.9
2018-06-15T02:42:27.254Z,11.9
2018-06-15T02:43:34.460Z,11.8
2018-06-15T02:44:41.668Z,11.9
2018-06-15T02:45:48.866Z,11.9
2018-06-15T02:46:56.074Z,11.9
2018-06-15T02:48:03.281Z,11.9
2018-06-15T02:49:10.488Z,11.9
2018-06-15T02:50:17.690Z,11.9
2018-06-15T02:51:24.896Z,11.9
2018-06-15T02:52:46.760Z,11.9
2018-06-15T02:53:53.976Z,11.9
2018-06-15T02:55:00.908Z,11.9
2018-06-15T02:56:08.112Z,11.9
2018-06-15T02:57:15.319Z,11.9
2018-06-15T02:58:22.247Z,11.9
2018-06-15T02:59:29.175Z,11.9
2018-06-15T03:00:36.115Z,11.9
2018-06-15T03:01:43.316Z,11.8
2018-06-15T03:02:50.516Z,11.8
2018-06-15T03:03:57.728Z,11.9
2018-06-15T03:05:04.966Z,11.9
2018-06-15T03:06:12.161Z,11.9
2018-06-15T03:07:19.368Z,11.9
2018-06-15T03:08:26.571Z,11.9
2018-06-15T03:09:33.230Z,11.9
2018-06-15T03:10:40.434Z,12
2018-06-15T03:11:47.378Z,12
2018-06-15T03:12:54.590Z,11.9
2018-06-15T03:14:01.522Z,11.9
2018-06-15T03:15:08.731Z,11.9
2018-06-15T03:16:15.937Z,11.9
2018-06-15T03:17:23.144Z,11.9
2018-06-15T03:18:30.375Z,11.9
2018-06-15T03:19:37.297Z,11.9
2018-06-15T03:20:44.229Z,11.9
2018-06-15T03:21:51.444Z,11.9
2018-06-15T03:22:58.661Z,11.9
2018-06-15T03:24:05.628Z,11.9
2018-06-15T03:25:12.951Z,11.9
2018-06-15T03:26:20.337Z,11.9
2018-06-15T03:27:27.267Z,11.9
2018-06-15T03:28:34.467Z,11.9
2018-06-15T03:29:41.673Z,12
2018-06-15T03:30:48.883Z,11.9
2018-06-15T03:31:56.092Z,11.9
2018-06-15T03:33:03.300Z,12
2018-06-15T03:34:10.508Z,12
2018-06-15T03:35:17.714Z,12.1
2018-06-15T03:36:24.920Z,12.1
2018-06-15T03:37:31.892Z,12.1
2018-06-15T03:38:39.119Z,12
2018-06-15T03:39:46.333Z,12
2018-06-15T03:40:53.259Z,12
2018-06-15T03:42:00.467Z,12.1
2018-06-15T03:43:07.668Z,12.1
2018-06-15T03:44:14.872Z,12.2
2018-06-15T03:45:22.070Z,12.2
2018-06-15T03:46:29.273Z,12.2
2018-06-15T03:47:36.206Z,12.3
2018-06-15T03:48:43.148Z,12.3
2018-06-15T03:49:50.347Z,12.3
2018-06-15T03:50:57.559Z,12.3
2018-06-15T03:52:04.465Z,12.3
2018-06-15T03:53:11.668Z,12.3
2018-06-15T03:54:18.875Z,12.3
2018-06-15T03:55:26.080Z,12.4
2018-06-15T03:56:33.309Z,12.4
2018-06-15T03:57:40.525Z,12.4
2018-06-15T03:58:47.485Z,12.4
2018-06-15T03:59:54.679Z,12.4
2018-06-15T04:01:01.885Z,12.4
2018-06-15T04:02:09.094Z,12.4
2018-06-15T04:03:16.312Z,12.4
2018-06-15T04:04:23.524Z,12.4
2018-06-15T04:05:30.731Z,12.4
2018-06-15T04:06:37.672Z,12.4
2018-06-15T04:07:45.114Z,12.5
2018-06-15T04:08:52.640Z,12.5
2018-06-15T04:09:59.851Z,12.5
2018-06-15T04:11:07.055Z,12.5
2018-06-15T04:12:13.982Z,12.5
2018-06-15T22:00:05.709Z,17.8
2018-06-15T22:01:12.914Z,17.8
2018-06-15T22:02:20.181Z,17.7
2018-06-15T22:03:27.407Z,17.7
2018-06-15T22:04:34.333Z,17.7
2018-06-15T22:05:41.541Z,17.7
2018-06-15T22:06:48.754Z,17.7
2018-06-15T22:07:55.957Z,17.7
2018-06-15T22:09:03.164Z,17.7
2018-06-15T22:10:10.381Z,17.7
2018-06-15T22:11:17.600Z,17.7
2018-06-15T22:12:24.791Z,17.7
2018-06-15T22:13:32.037Z,17.7
2018-06-15T22:14:39.241Z,17.7
2018-06-15T22:15:46.449Z,17.7
2018-06-15T22:16:53.664Z,17.7
2018-06-15T22:18:00.873Z,17.6
2018-06-15T22:19:08.100Z,17.5
2018-06-15T22:20:15.333Z,17.5
2018-06-15T22:21:22.546Z,17.5
2018-06-15T22:22:29.756Z,17.5
2018-06-15T22:23:36.965Z,17.6
2018-06-15T22:24:44.169Z,17.5
2018-06-15T22:25:51.376Z,17.5
2018-06-15T22:26:58.303Z,17.6
2018-06-15T22:28:05.507Z,17.5
2018-06-15T22:29:12.925Z,17.5
2018-06-15T22:30:20.134Z,17.5
2018-06-15T22:31:27.065Z,17.5
2018-06-15T22:32:34.269Z,17.5
2018-06-15T22:33:41.198Z,17.5
2018-06-15T22:34:48.420Z,17.4
2018-06-15T22:35:55.629Z,17.4
2018-06-15T22:37:02.833Z,17.3
2018-06-15T22:38:10.040Z,17.3
2018-06-15T22:39:16.698Z,17.3
2018-06-15T22:40:23.892Z,17.2
2018-06-15T22:41:31.101Z,17.2
2018-06-15T22:42:38.320Z,17.2
2018-06-15T22:43:45.255Z,17.2
2018-06-15T22:44:52.462Z,17.2
2018-06-15T22:45:59.683Z,17.2
2018-06-15T22:47:06.892Z,17.2
2018-06-15T22:48:13.822Z,17.1
2018-06-15T22:49:21.041Z,17.1
2018-06-15T22:50:28.259Z,17.1
2018-06-15T22:51:35.462Z,17.1
2018-06-15T22:52:42.672Z,17.1
2018-06-15T22:53:49.880Z,17.1
2018-06-15T22:54:57.084Z,17.1
2018-06-15T22:56:04.294Z,17.2
2018-06-15T22:57:11.499Z,17.2
2018-06-15T22:58:18.709Z,17.2
2018-06-15T22:59:25.919Z,17.2
2018-06-15T23:00:33.144Z,17.2
2018-06-15T23:01:40.338Z,17.2
2018-06-15T23:02:47.264Z,17.2
2018-06-15T23:03:54.470Z,17.1
2018-06-15T23:05:01.685Z,17.1
2018-06-15T23:06:08.887Z,17.1
2018-06-15T23:07:15.822Z,17.1
2018-06-15T23:08:22.755Z,17.1
2018-06-15T23:09:29.968Z,17
2018-06-15T23:10:37.169Z,17
2018-06-15T23:11:44.098Z,17
2018-06-15T23:12:51.302Z,17
2018-06-15T23:13:58.509Z,17
2018-06-15T23:15:05.712Z,17
2018-06-15T23:16:12.925Z,16.9
2018-06-15T23:17:20.129Z,16.9
2018-06-15T23:18:27.335Z,16.9
2018-06-15T23:19:34.546Z,16.9
2018-06-15T23:20:41.749Z,16.9
2018-06-15T23:21:48.953Z,16.9
2018-06-15T23:22:56.163Z,16.9
2018-06-15T23:24:03.370Z,16.9
2018-06-15T23:25:10.299Z,16.9
2018-06-15T23:26:16.954Z,16.9
2018-06-15T23:27:24.159Z,16.8
2018-06-15T23:28:31.370Z,16.8
2018-06-15T23:29:38.584Z,16.8
2018-06-15T23:30:45.799Z,16.9
2018-06-15T23:31:53.007Z,16.9
2018-06-15T23:33:00.252Z,16.9
2018-06-15T23:34:07.524Z,16.9
2018-06-15T23:35:14.460Z,16.9
2018-06-15T23:36:21.669Z,16.9
2018-06-15T23:37:28.876Z,16.9
2018-06-15T23:38:35.804Z,16.9
2018-06-15T23:39:42.755Z,16.9
2018-06-15T23:40:49.951Z,16.9
2018-06-15T23:41:57.158Z,16.9
2018-06-15T23:43:04.086Z,16.9
2018-06-15T23:44:11.290Z,16.9
2018-06-15T23:45:18.498Z,16.9
2018-06-15T23:46:25.703Z,16.9
2018-06-15T23:47:32.918Z,16.9
2018-06-15T23:48:40.123Z,16.9
2018-06-15T23:49:47.332Z,16.9
2018-06-15T23:50:54.535Z,16.9
2018-06-15T23:52:01.737Z,16.8
2018-06-15T23:53:08.666Z,16.8
2018-06-15T23:54:15.871Z,16.8
2018-06-15T23:55:23.075Z,16.8
2018-06-15T23:56:30.285Z,16.8
2018-06-15T23:57:37.235Z,16.8
2018-06-15T23:58:44.442Z,16.8
2018-06-15T23:59:51.650Z,16.7
